sensor_id;sensor_type;location;lat;lon;timestamp;P1;durP1;ratioP1;P2;durP2;ratioP2
42364;SDS011;28498;54.400;18.566;2023-09-18T00:00:46;39.30;;;18.20;;
42364;SDS011;28498;54.400;18.566;2023-09-18T00:05:46;35.45;;;18.15;;
42364;SDS011;28498;54.400;18.566;2023-09-18T00:08:14;38.92;;;18.98;;
42364;SDS011;28498;54.400;18.566;2023-09-18T00:10:42;37.85;;;18.55;;
42364;SDS011;28498;54.400;18.566;2023-09-18T00:13:14;36.53;;;18.60;;
42364;SDS011;28498;54.400;18.566;2023-09-18T00:15:41;32.78;;;17.23;;
42364;SDS011;28498;54.400;18.566;2023-09-18T00:18:09;35.95;;;17.10;;
42364;SDS011;28498;54.400;18.566;2023-09-18T00:20:37;44.15;;;19.95;;
42364;SDS011;28498;54.400;18.566;2023-09-18T00:23:04;35.88;;;17.88;;
42364;SDS011;28498;54.400;18.566;2023-09-18T00:25:31;38.53;;;19.90;;
42364;SDS011;28498;54.400;18.566;2023-09-18T00:27:58;36.05;;;20.23;;
42364;SDS011;28498;54.400;18.566;2023-09-18T00:30:25;39.85;;;20.55;;
42364;SDS011;28498;54.400;18.566;2023-09-18T00:32:52;42.45;;;20.65;;
42364;SDS011;28498;54.400;18.566;2023-09-18T00:35:20;38.20;;;18.52;;
42364;SDS011;28498;54.400;18.566;2023-09-18T00:37:48;38.35;;;19.17;;
42364;SDS011;28498;54.400;18.566;2023-09-18T00:40:15;34.95;;;19.10;;
42364;SDS011;28498;54.400;18.566;2023-09-18T00:42:42;35.90;;;18.42;;
42364;SDS011;28498;54.400;18.566;2023-09-18T00:45:09;39.60;;;18.52;;
42364;SDS011;28498;54.400;18.566;2023-09-18T00:47:36;37.00;;;18.25;;
42364;SDS011;28498;54.400;18.566;2023-09-18T00:50:04;33.38;;;17.05;;
42364;SDS011;28498;54.400;18.566;2023-09-18T00:52:33;40.95;;;17.92;;
42364;SDS011;28498;54.400;18.566;2023-09-18T00:55:00;40.95;;;19.83;;
42364;SDS011;28498;54.400;18.566;2023-09-18T00:57:28;33.17;;;17.33;;
42364;SDS011;28498;54.400;18.566;2023-09-18T00:59:56;38.72;;;18.25;;
42364;SDS011;28498;54.400;18.566;2023-09-18T01:02:23;34.85;;;17.50;;
42364;SDS011;28498;54.400;18.566;2023-09-18T01:04:50;34.55;;;16.65;;
42364;SDS011;28498;54.400;18.566;2023-09-18T01:07:17;32.75;;;16.42;;
42364;SDS011;28498;54.400;18.566;2023-09-18T01:09:44;33.25;;;17.95;;
42364;SDS011;28498;54.400;18.566;2023-09-18T01:12:17;31.90;;;16.20;;
42364;SDS011;28498;54.400;18.566;2023-09-18T01:15:06;34.60;;;16.25;;
42364;SDS011;28498;54.400;18.566;2023-09-18T01:17:39;36.20;;;16.50;;
42364;SDS011;28498;54.400;18.566;2023-09-18T01:20:10;31.90;;;16.48;;
42364;SDS011;28498;54.400;18.566;2023-09-18T01:22:38;36.03;;;16.65;;
42364;SDS011;28498;54.400;18.566;2023-09-18T01:25:05;32.33;;;16.13;;
42364;SDS011;28498;54.400;18.566;2023-09-18T01:27:34;34.75;;;16.90;;
42364;SDS011;28498;54.400;18.566;2023-09-18T01:30:01;32.40;;;15.60;;
42364;SDS011;28498;54.400;18.566;2023-09-18T01:32:29;33.28;;;16.20;;
42364;SDS011;28498;54.400;18.566;2023-09-18T01:34:59;33.17;;;15.82;;
42364;SDS011;28498;54.400;18.566;2023-09-18T01:41:16;35.35;;;15.75;;
42364;SDS011;28498;54.400;18.566;2023-09-18T01:43:43;33.95;;;16.52;;
42364;SDS011;28498;54.400;18.566;2023-09-18T01:46:10;40.47;;;17.33;;
42364;SDS011;28498;54.400;18.566;2023-09-18T01:48:37;38.40;;;17.98;;
42364;SDS011;28498;54.400;18.566;2023-09-18T01:51:13;33.63;;;17.17;;
42364;SDS011;28498;54.400;18.566;2023-09-18T01:53:42;34.67;;;17.55;;
42364;SDS011;28498;54.400;18.566;2023-09-18T01:56:09;35.45;;;17.75;;
42364;SDS011;28498;54.400;18.566;2023-09-18T01:58:36;35.85;;;17.77;;
42364;SDS011;28498;54.400;18.566;2023-09-18T02:01:04;37.60;;;16.77;;
42364;SDS011;28498;54.400;18.566;2023-09-18T02:03:31;35.67;;;17.30;;
42364;SDS011;28498;54.400;18.566;2023-09-18T02:06:18;34.78;;;17.58;;
42364;SDS011;28498;54.400;18.566;2023-09-18T02:08:45;41.38;;;18.70;;
42364;SDS011;28498;54.400;18.566;2023-09-18T02:11:12;38.78;;;17.52;;
42364;SDS011;28498;54.400;18.566;2023-09-18T02:13:39;40.90;;;18.20;;
42364;SDS011;28498;54.400;18.566;2023-09-18T02:16:06;40.60;;;18.83;;
42364;SDS011;28498;54.400;18.566;2023-09-18T02:18:33;50.42;;;20.67;;
42364;SDS011;28498;54.400;18.566;2023-09-18T02:21:00;48.60;;;21.27;;
42364;SDS011;28498;54.400;18.566;2023-09-18T02:23:27;49.58;;;20.98;;
42364;SDS011;28498;54.400;18.566;2023-09-18T02:25:58;45.63;;;20.23;;
42364;SDS011;28498;54.400;18.566;2023-09-18T02:28:25;47.45;;;21.02;;
42364;SDS011;28498;54.400;18.566;2023-09-18T02:30:52;48.95;;;20.77;;
42364;SDS011;28498;54.400;18.566;2023-09-18T02:33:19;51.55;;;20.90;;
42364;SDS011;28498;54.400;18.566;2023-09-18T02:35:46;44.83;;;19.77;;
42364;SDS011;28498;54.400;18.566;2023-09-18T02:38:13;44.65;;;20.00;;
42364;SDS011;28498;54.400;18.566;2023-09-18T02:40:41;46.20;;;19.13;;
42364;SDS011;28498;54.400;18.566;2023-09-18T02:43:08;41.75;;;18.38;;
42364;SDS011;28498;54.400;18.566;2023-09-18T02:45:34;42.72;;;18.02;;
42364;SDS011;28498;54.400;18.566;2023-09-18T02:48:01;39.30;;;17.98;;
42364;SDS011;28498;54.400;18.566;2023-09-18T02:50:29;40.83;;;16.88;;
42364;SDS011;28498;54.400;18.566;2023-09-18T02:52:56;43.83;;;17.90;;
42364;SDS011;28498;54.400;18.566;2023-09-18T02:55:22;41.55;;;19.27;;
42364;SDS011;28498;54.400;18.566;2023-09-18T02:57:49;36.97;;;16.55;;
42364;SDS011;28498;54.400;18.566;2023-09-18T03:00:16;40.92;;;16.70;;
42364;SDS011;28498;54.400;18.566;2023-09-18T03:02:58;37.83;;;17.27;;
42364;SDS011;28498;54.400;18.566;2023-09-18T03:05:25;36.05;;;16.10;;
42364;SDS011;28498;54.400;18.566;2023-09-18T03:07:53;41.90;;;16.88;;
42364;SDS011;28498;54.400;18.566;2023-09-18T03:10:20;34.60;;;17.08;;
42364;SDS011;28498;54.400;18.566;2023-09-18T03:12:47;44.25;;;19.17;;
42364;SDS011;28498;54.400;18.566;2023-09-18T03:15:15;42.55;;;17.30;;
42364;SDS011;28498;54.400;18.566;2023-09-18T03:17:42;43.80;;;17.65;;
42364;SDS011;28498;54.400;18.566;2023-09-18T03:20:09;40.97;;;16.88;;
42364;SDS011;28498;54.400;18.566;2023-09-18T03:22:37;37.00;;;15.95;;
42364;SDS011;28498;54.400;18.566;2023-09-18T03:25:04;34.30;;;15.68;;
42364;SDS011;28498;54.400;18.566;2023-09-18T03:27:31;30.50;;;14.18;;
42364;SDS011;28498;54.400;18.566;2023-09-18T03:29:58;35.22;;;14.85;;
42364;SDS011;28498;54.400;18.566;2023-09-18T03:32:25;35.80;;;14.65;;
42364;SDS011;28498;54.400;18.566;2023-09-18T03:34:52;29.65;;;14.43;;
42364;SDS011;28498;54.400;18.566;2023-09-18T03:37:19;36.05;;;15.88;;
42364;SDS011;28498;54.400;18.566;2023-09-18T03:39:46;35.80;;;15.20;;
42364;SDS011;28498;54.400;18.566;2023-09-18T03:42:13;36.58;;;15.00;;
42364;SDS011;28498;54.400;18.566;2023-09-18T03:44:40;35.08;;;15.85;;
42364;SDS011;28498;54.400;18.566;2023-09-18T03:47:07;35.75;;;15.77;;
42364;SDS011;28498;54.400;18.566;2023-09-18T03:49:34;33.88;;;15.80;;
42364;SDS011;28498;54.400;18.566;2023-09-18T03:52:01;35.15;;;15.73;;
42364;SDS011;28498;54.400;18.566;2023-09-18T03:54:29;36.42;;;16.73;;
42364;SDS011;28498;54.400;18.566;2023-09-18T03:56:55;33.13;;;15.88;;
42364;SDS011;28498;54.400;18.566;2023-09-18T03:59:23;36.05;;;17.10;;
42364;SDS011;28498;54.400;18.566;2023-09-18T04:01:50;35.40;;;16.52;;
42364;SDS011;28498;54.400;18.566;2023-09-18T04:04:17;39.78;;;16.88;;
42364;SDS011;28498;54.400;18.566;2023-09-18T04:06:45;43.40;;;18.60;;
42364;SDS011;28498;54.400;18.566;2023-09-18T04:09:12;38.03;;;15.50;;
42364;SDS011;28498;54.400;18.566;2023-09-18T04:11:41;37.65;;;15.82;;
42364;SDS011;28498;54.400;18.566;2023-09-18T04:14:08;37.78;;;15.98;;
42364;SDS011;28498;54.400;18.566;2023-09-18T04:16:35;36.53;;;15.80;;
42364;SDS011;28498;54.400;18.566;2023-09-18T04:19:03;41.67;;;16.05;;
42364;SDS011;28498;54.400;18.566;2023-09-18T04:21:30;40.05;;;16.90;;
42364;SDS011;28498;54.400;18.566;2023-09-18T04:23:57;43.13;;;18.55;;
42364;SDS011;28498;54.400;18.566;2023-09-18T04:26:25;46.30;;;17.35;;
42364;SDS011;28498;54.400;18.566;2023-09-18T04:28:56;43.75;;;18.13;;
42364;SDS011;28498;54.400;18.566;2023-09-18T04:31:24;42.78;;;18.23;;
42364;SDS011;28498;54.400;18.566;2023-09-18T04:33:51;41.75;;;17.30;;
42364;SDS011;28498;54.400;18.566;2023-09-18T04:36:18;42.17;;;18.23;;
42364;SDS011;28498;54.400;18.566;2023-09-18T04:38:46;40.00;;;16.75;;
42364;SDS011;28498;54.400;18.566;2023-09-18T04:41:13;36.38;;;16.38;;
42364;SDS011;28498;54.400;18.566;2023-09-18T04:47:28;35.22;;;14.70;;
42364;SDS011;28498;54.400;18.566;2023-09-18T04:49:55;33.40;;;14.70;;
42364;SDS011;28498;54.400;18.566;2023-09-18T04:52:22;40.63;;;16.27;;
42364;SDS011;28498;54.400;18.566;2023-09-18T04:54:49;35.38;;;15.98;;
42364;SDS011;28498;54.400;18.566;2023-09-18T04:57:16;38.38;;;15.88;;
42364;SDS011;28498;54.400;18.566;2023-09-18T04:59:45;39.40;;;17.48;;
42364;SDS011;28498;54.400;18.566;2023-09-18T05:02:11;41.55;;;17.42;;
42364;SDS011;28498;54.400;18.566;2023-09-18T05:04:39;36.03;;;15.07;;
42364;SDS011;28498;54.400;18.566;2023-09-18T05:07:06;32.42;;;15.35;;
42364;SDS011;28498;54.400;18.566;2023-09-18T05:09:33;37.10;;;15.27;;
42364;SDS011;28498;54.400;18.566;2023-09-18T05:12:04;38.10;;;15.98;;
42364;SDS011;28498;54.400;18.566;2023-09-18T05:14:34;40.83;;;17.67;;
42364;SDS011;28498;54.400;18.566;2023-09-18T05:17:02;40.42;;;17.33;;
42364;SDS011;28498;54.400;18.566;2023-09-18T05:19:29;41.00;;;17.15;;
42364;SDS011;28498;54.400;18.566;2023-09-18T05:21:56;42.28;;;17.55;;
42364;SDS011;28498;54.400;18.566;2023-09-18T05:24:23;36.40;;;15.98;;
42364;SDS011;28498;54.400;18.566;2023-09-18T05:26:53;34.67;;;15.20;;
42364;SDS011;28498;54.400;18.566;2023-09-18T05:29:20;34.40;;;16.27;;
42364;SDS011;28498;54.400;18.566;2023-09-18T05:31:47;33.20;;;15.00;;
42364;SDS011;28498;54.400;18.566;2023-09-18T05:34:14;33.17;;;14.77;;
42364;SDS011;28498;54.400;18.566;2023-09-18T05:36:42;33.70;;;15.20;;
42364;SDS011;28498;54.400;18.566;2023-09-18T05:39:09;31.48;;;13.75;;
42364;SDS011;28498;54.400;18.566;2023-09-18T05:41:39;40.63;;;16.15;;
42364;SDS011;28498;54.400;18.566;2023-09-18T05:44:06;34.80;;;17.13;;
42364;SDS011;28498;54.400;18.566;2023-09-18T05:46:34;34.00;;;15.95;;
42364;SDS011;28498;54.400;18.566;2023-09-18T05:49:02;35.17;;;16.10;;
42364;SDS011;28498;54.400;18.566;2023-09-18T05:51:29;36.67;;;16.27;;
42364;SDS011;28498;54.400;18.566;2023-09-18T05:53:57;36.92;;;16.77;;
42364;SDS011;28498;54.400;18.566;2023-09-18T05:56:25;44.40;;;17.88;;
42364;SDS011;28498;54.400;18.566;2023-09-18T05:58:52;44.38;;;17.85;;
42364;SDS011;28498;54.400;18.566;2023-09-18T06:01:19;40.22;;;18.50;;
42364;SDS011;28498;54.400;18.566;2023-09-18T06:03:46;39.05;;;17.77;;
42364;SDS011;28498;54.400;18.566;2023-09-18T06:06:14;39.25;;;17.88;;
42364;SDS011;28498;54.400;18.566;2023-09-18T06:08:41;38.53;;;18.40;;
42364;SDS011;28498;54.400;18.566;2023-09-18T06:11:08;40.95;;;18.35;;
42364;SDS011;28498;54.400;18.566;2023-09-18T06:13:35;36.38;;;17.10;;
42364;SDS011;28498;54.400;18.566;2023-09-18T06:16:02;37.97;;;17.25;;
42364;SDS011;28498;54.400;18.566;2023-09-18T06:18:33;37.25;;;17.70;;
42364;SDS011;28498;54.400;18.566;2023-09-18T06:21:02;35.17;;;16.80;;
42364;SDS011;28498;54.400;18.566;2023-09-18T06:23:29;31.98;;;15.90;;
42364;SDS011;28498;54.400;18.566;2023-09-18T06:25:56;24.52;;;13.57;;
42364;SDS011;28498;54.400;18.566;2023-09-18T06:28:25;26.08;;;13.55;;
42364;SDS011;28498;54.400;18.566;2023-09-18T06:30:52;27.38;;;14.60;;
42364;SDS011;28498;54.400;18.566;2023-09-18T06:33:20;25.00;;;13.40;;
42364;SDS011;28498;54.400;18.566;2023-09-18T06:35:48;20.42;;;11.93;;
42364;SDS011;28498;54.400;18.566;2023-09-18T06:38:15;21.38;;;12.60;;
42364;SDS011;28498;54.400;18.566;2023-09-18T06:40:42;20.85;;;11.70;;
42364;SDS011;28498;54.400;18.566;2023-09-18T06:43:09;18.13;;;11.43;;
42364;SDS011;28498;54.400;18.566;2023-09-18T06:45:36;18.83;;;11.55;;
42364;SDS011;28498;54.400;18.566;2023-09-18T06:48:04;16.20;;;10.05;;
42364;SDS011;28498;54.400;18.566;2023-09-18T06:50:32;15.20;;;9.90;;
42364;SDS011;28498;54.400;18.566;2023-09-18T06:52:59;22.60;;;11.13;;
42364;SDS011;28498;54.400;18.566;2023-09-18T06:55:26;20.27;;;12.38;;
42364;SDS011;28498;54.400;18.566;2023-09-18T06:57:53;23.92;;;10.80;;
42364;SDS011;28498;54.400;18.566;2023-09-18T07:00:21;17.50;;;10.48;;
42364;SDS011;28498;54.400;18.566;2023-09-18T07:02:48;17.92;;;11.15;;
42364;SDS011;28498;54.400;18.566;2023-09-18T07:05:16;19.75;;;10.80;;
42364;SDS011;28498;54.400;18.566;2023-09-18T07:07:43;18.80;;;11.23;;
42364;SDS011;28498;54.400;18.566;2023-09-18T07:10:10;17.50;;;9.80;;
42364;SDS011;28498;54.400;18.566;2023-09-18T07:12:38;16.17;;;10.32;;
42364;SDS011;28498;54.400;18.566;2023-09-18T07:15:05;16.02;;;8.95;;
42364;SDS011;28498;54.400;18.566;2023-09-18T07:17:33;15.07;;;9.15;;
42364;SDS011;28498;54.400;18.566;2023-09-18T07:20:02;14.70;;;9.63;;
42364;SDS011;28498;54.400;18.566;2023-09-18T07:22:44;14.57;;;8.35;;
42364;SDS011;28498;54.400;18.566;2023-09-18T07:25:12;14.65;;;9.45;;
42364;SDS011;28498;54.400;18.566;2023-09-18T07:27:39;13.98;;;9.27;;
42364;SDS011;28498;54.400;18.566;2023-09-18T07:30:11;15.60;;;9.73;;
42364;SDS011;28498;54.400;18.566;2023-09-18T07:32:41;16.05;;;9.80;;
42364;SDS011;28498;54.400;18.566;2023-09-18T07:35:09;15.98;;;9.82;;
42364;SDS011;28498;54.400;18.566;2023-09-18T07:37:36;13.55;;;8.65;;
42364;SDS011;28498;54.400;18.566;2023-09-18T07:40:07;16.05;;;9.02;;
42364;SDS011;28498;54.400;18.566;2023-09-18T07:42:34;15.32;;;9.20;;
42364;SDS011;28498;54.400;18.566;2023-09-18T07:45:01;14.50;;;9.55;;
42364;SDS011;28498;54.400;18.566;2023-09-18T07:47:29;13.27;;;8.50;;
42364;SDS011;28498;54.400;18.566;2023-09-18T07:49:57;14.85;;;8.60;;
42364;SDS011;28498;54.400;18.566;2023-09-18T07:52:24;12.75;;;8.07;;
42364;SDS011;28498;54.400;18.566;2023-09-18T07:54:52;14.38;;;8.10;;
42364;SDS011;28498;54.400;18.566;2023-09-18T07:57:19;14.43;;;8.40;;
42364;SDS011;28498;54.400;18.566;2023-09-18T07:59:47;14.18;;;8.38;;
42364;SDS011;28498;54.400;18.566;2023-09-18T08:02:14;12.45;;;8.18;;
42364;SDS011;28498;54.400;18.566;2023-09-18T08:04:41;12.32;;;8.57;;
42364;SDS011;28498;54.400;18.566;2023-09-18T08:07:09;11.73;;;8.05;;
42364;SDS011;28498;54.400;18.566;2023-09-18T08:09:36;12.00;;;7.30;;
42364;SDS011;28498;54.400;18.566;2023-09-18T08:12:03;11.95;;;8.00;;
42364;SDS011;28498;54.400;18.566;2023-09-18T08:14:31;12.80;;;8.15;;
42364;SDS011;28498;54.400;18.566;2023-09-18T08:16:58;12.20;;;8.02;;
42364;SDS011;28498;54.400;18.566;2023-09-18T08:19:26;13.25;;;7.88;;
42364;SDS011;28498;54.400;18.566;2023-09-18T08:21:54;13.02;;;8.32;;
42364;SDS011;28498;54.400;18.566;2023-09-18T08:24:22;10.15;;;7.15;;
42364;SDS011;28498;54.400;18.566;2023-09-18T08:26:49;14.35;;;8.75;;
42364;SDS011;28498;54.400;18.566;2023-09-18T08:29:16;14.48;;;8.43;;
42364;SDS011;28498;54.400;18.566;2023-09-18T08:31:44;12.55;;;7.18;;
42364;SDS011;28498;54.400;18.566;2023-09-18T08:34:11;11.35;;;6.70;;
42364;SDS011;28498;54.400;18.566;2023-09-18T08:36:38;9.82;;;7.13;;
42364;SDS011;28498;54.400;18.566;2023-09-18T08:39:05;11.88;;;7.10;;
42364;SDS011;28498;54.400;18.566;2023-09-18T08:41:33;12.50;;;7.00;;
42364;SDS011;28498;54.400;18.566;2023-09-18T08:44:07;12.05;;;6.60;;
42364;SDS011;28498;54.400;18.566;2023-09-18T08:46:38;12.55;;;7.07;;
42364;SDS011;28498;54.400;18.566;2023-09-18T08:49:05;11.82;;;6.53;;
42364;SDS011;28498;54.400;18.566;2023-09-18T08:51:34;9.70;;;5.93;;
42364;SDS011;28498;54.400;18.566;2023-09-18T08:54:03;8.52;;;6.35;;
42364;SDS011;28498;54.400;18.566;2023-09-18T08:56:31;10.68;;;6.55;;
42364;SDS011;28498;54.400;18.566;2023-09-18T08:59:00;9.38;;;6.70;;
42364;SDS011;28498;54.400;18.566;2023-09-18T09:01:27;11.90;;;5.95;;
42364;SDS011;28498;54.400;18.566;2023-09-18T09:03:54;8.43;;;6.10;;
42364;SDS011;28498;54.400;18.566;2023-09-18T09:06:21;9.23;;;6.68;;
42364;SDS011;28498;54.400;18.566;2023-09-18T09:08:49;10.07;;;7.00;;
42364;SDS011;28498;54.400;18.566;2023-09-18T09:11:17;8.82;;;6.13;;
42364;SDS011;28498;54.400;18.566;2023-09-18T09:13:46;11.48;;;6.47;;
42364;SDS011;28498;54.400;18.566;2023-09-18T09:16:13;9.75;;;6.13;;
42364;SDS011;28498;54.400;18.566;2023-09-18T09:18:50;10.55;;;7.15;;
42364;SDS011;28498;54.400;18.566;2023-09-18T09:21:18;12.32;;;6.78;;
42364;SDS011;28498;54.400;18.566;2023-09-18T09:23:52;10.77;;;7.35;;
42364;SDS011;28498;54.400;18.566;2023-09-18T09:26:20;11.63;;;6.88;;
42364;SDS011;28498;54.400;18.566;2023-09-18T09:28:49;9.30;;;6.18;;
42364;SDS011;28498;54.400;18.566;2023-09-18T09:33:54;9.13;;;5.50;;
42364;SDS011;28498;54.400;18.566;2023-09-18T09:36:25;11.40;;;6.85;;
42364;SDS011;28498;54.400;18.566;2023-09-18T09:38:56;9.13;;;5.93;;
42364;SDS011;28498;54.400;18.566;2023-09-18T09:41:28;12.55;;;6.30;;
42364;SDS011;28498;54.400;18.566;2023-09-18T09:43:57;11.35;;;6.05;;
42364;SDS011;28498;54.400;18.566;2023-09-18T09:46:25;11.30;;;6.57;;
42364;SDS011;28498;54.400;18.566;2023-09-18T09:49:02;11.25;;;6.60;;
42364;SDS011;28498;54.400;18.566;2023-09-18T09:51:32;10.23;;;6.35;;
42364;SDS011;28498;54.400;18.566;2023-09-18T09:54:00;9.93;;;6.07;;
42364;SDS011;28498;54.400;18.566;2023-09-18T09:59:15;8.13;;;5.75;;
42364;SDS011;28498;54.400;18.566;2023-09-18T10:01:47;11.77;;;6.38;;
42364;SDS011;28498;54.400;18.566;2023-09-18T10:04:17;8.95;;;6.10;;
42364;SDS011;28498;54.400;18.566;2023-09-18T10:06:53;9.23;;;6.10;;
42364;SDS011;28498;54.400;18.566;2023-09-18T10:09:26;9.68;;;6.05;;
42364;SDS011;28498;54.400;18.566;2023-09-18T10:11:56;10.45;;;5.90;;
42364;SDS011;28498;54.400;18.566;2023-09-18T10:14:31;9.73;;;6.25;;
42364;SDS011;28498;54.400;18.566;2023-09-18T10:17:24;8.80;;;5.55;;
42364;SDS011;28498;54.400;18.566;2023-09-18T10:20:01;8.35;;;5.60;;
42364;SDS011;28498;54.400;18.566;2023-09-18T10:22:38;8.93;;;6.25;;
42364;SDS011;28498;54.400;18.566;2023-09-18T10:27:39;8.65;;;5.47;;
42364;SDS011;28498;54.400;18.566;2023-09-18T10:30:08;10.63;;;5.43;;
42364;SDS011;28498;54.400;18.566;2023-09-18T10:32:38;7.80;;;5.43;;
42364;SDS011;28498;54.400;18.566;2023-09-18T10:35:07;8.52;;;6.00;;
42364;SDS011;28498;54.400;18.566;2023-09-18T10:37:35;9.10;;;6.22;;
42364;SDS011;28498;54.400;18.566;2023-09-18T10:40:06;7.20;;;5.68;;
42364;SDS011;28498;54.400;18.566;2023-09-18T10:42:38;10.18;;;5.82;;
42364;SDS011;28498;54.400;18.566;2023-09-18T10:45:07;9.45;;;5.47;;
42364;SDS011;28498;54.400;18.566;2023-09-18T10:47:37;7.57;;;5.65;;
42364;SDS011;28498;54.400;18.566;2023-09-18T10:50:08;6.80;;;5.15;;
42364;SDS011;28498;54.400;18.566;2023-09-18T10:52:36;7.80;;;5.53;;
42364;SDS011;28498;54.400;18.566;2023-09-18T10:55:12;8.27;;;5.47;;
42364;SDS011;28498;54.400;18.566;2023-09-18T10:57:53;8.98;;;4.80;;
42364;SDS011;28498;54.400;18.566;2023-09-18T11:00:24;6.53;;;5.03;;
42364;SDS011;28498;54.400;18.566;2023-09-18T11:02:55;8.77;;;4.78;;
42364;SDS011;28498;54.400;18.566;2023-09-18T11:05:46;8.95;;;5.20;;
42364;SDS011;28498;54.400;18.566;2023-09-18T11:08:26;7.97;;;5.22;;
42364;SDS011;28498;54.400;18.566;2023-09-18T11:11:16;7.05;;;4.10;;
42364;SDS011;28498;54.400;18.566;2023-09-18T11:13:47;5.78;;;4.28;;
42364;SDS011;28498;54.400;18.566;2023-09-18T11:16:18;8.98;;;4.30;;
42364;SDS011;28498;54.400;18.566;2023-09-18T11:19:07;7.00;;;4.03;;
42364;SDS011;28498;54.400;18.566;2023-09-18T11:21:38;5.07;;;3.80;;
42364;SDS011;28498;54.400;18.566;2023-09-18T11:24:06;6.30;;;3.85;;
42364;SDS011;28498;54.400;18.566;2023-09-18T11:26:42;8.23;;;3.90;;
42364;SDS011;28498;54.400;18.566;2023-09-18T11:29:13;7.00;;;3.78;;
42364;SDS011;28498;54.400;18.566;2023-09-18T11:31:52;7.30;;;4.10;;
42364;SDS011;28498;54.400;18.566;2023-09-18T11:34:21;5.72;;;3.90;;
42364;SDS011;28498;54.400;18.566;2023-09-18T11:36:49;4.93;;;3.75;;
42364;SDS011;28498;54.400;18.566;2023-09-18T11:42:11;5.68;;;4.28;;
42364;SDS011;28498;54.400;18.566;2023-09-18T11:44:44;8.00;;;4.03;;
42364;SDS011;28498;54.400;18.566;2023-09-18T11:47:23;6.93;;;3.63;;
42364;SDS011;28498;54.400;18.566;2023-09-18T11:49:55;6.78;;;4.00;;
42364;SDS011;28498;54.400;18.566;2023-09-18T11:54:53;7.85;;;3.85;;
42364;SDS011;28498;54.400;18.566;2023-09-18T11:57:22;7.45;;;4.03;;
42364;SDS011;28498;54.400;18.566;2023-09-18T11:59:49;7.72;;;3.88;;
42364;SDS011;28498;54.400;18.566;2023-09-18T12:02:27;7.13;;;4.00;;
42364;SDS011;28498;54.400;18.566;2023-09-18T12:05:15;9.02;;;5.05;;
42364;SDS011;28498;54.400;18.566;2023-09-18T12:07:44;7.32;;;4.55;;
42364;SDS011;28498;54.400;18.566;2023-09-18T12:10:16;5.72;;;3.72;;
42364;SDS011;28498;54.400;18.566;2023-09-18T12:12:45;5.22;;;3.78;;
42364;SDS011;28498;54.400;18.566;2023-09-18T12:15:13;8.63;;;4.30;;
42364;SDS011;28498;54.400;18.566;2023-09-18T12:17:41;9.23;;;4.35;;
42364;SDS011;28498;54.400;18.566;2023-09-18T12:20:17;8.18;;;4.30;;
42364;SDS011;28498;54.400;18.566;2023-09-18T12:22:49;9.48;;;4.57;;
42364;SDS011;28498;54.400;18.566;2023-09-18T12:25:20;5.43;;;3.92;;
42364;SDS011;28498;54.400;18.566;2023-09-18T12:27:53;4.95;;;3.78;;
42364;SDS011;28498;54.400;18.566;2023-09-18T12:30:21;6.45;;;4.30;;
42364;SDS011;28498;54.400;18.566;2023-09-18T12:32:50;8.85;;;3.85;;
42364;SDS011;28498;54.400;18.566;2023-09-18T12:35:18;6.10;;;4.53;;
42364;SDS011;28498;54.400;18.566;2023-09-18T12:37:45;7.60;;;3.67;;
42364;SDS011;28498;54.400;18.566;2023-09-18T12:40:28;7.40;;;3.80;;
42364;SDS011;28498;54.400;18.566;2023-09-18T12:42:56;5.47;;;4.15;;
42364;SDS011;28498;54.400;18.566;2023-09-18T12:45:24;6.38;;;3.92;;
42364;SDS011;28498;54.400;18.566;2023-09-18T12:47:54;8.10;;;3.95;;
42364;SDS011;28498;54.400;18.566;2023-09-18T12:50:24;6.43;;;4.13;;
42364;SDS011;28498;54.400;18.566;2023-09-18T12:52:52;6.07;;;3.83;;
42364;SDS011;28498;54.400;18.566;2023-09-18T12:55:25;6.72;;;4.18;;
42364;SDS011;28498;54.400;18.566;2023-09-18T12:57:54;6.90;;;4.32;;
42364;SDS011;28498;54.400;18.566;2023-09-18T13:00:22;7.18;;;3.75;;
42364;SDS011;28498;54.400;18.566;2023-09-18T13:02:50;7.55;;;4.63;;
42364;SDS011;28498;54.400;18.566;2023-09-18T13:05:22;7.55;;;3.50;;
42364;SDS011;28498;54.400;18.566;2023-09-18T13:07:53;6.50;;;3.60;;
42364;SDS011;28498;54.400;18.566;2023-09-18T13:10:22;4.15;;;3.30;;
42364;SDS011;28498;54.400;18.566;2023-09-18T13:12:54;6.68;;;4.40;;
42364;SDS011;28498;54.400;18.566;2023-09-18T13:15:29;5.50;;;3.42;;
42364;SDS011;28498;54.400;18.566;2023-09-18T13:18:00;7.95;;;4.13;;
42364;SDS011;28498;54.400;18.566;2023-09-18T13:20:35;5.47;;;3.78;;
42364;SDS011;28498;54.400;18.566;2023-09-18T13:23:02;7.95;;;4.18;;
42364;SDS011;28498;54.400;18.566;2023-09-18T13:25:33;5.07;;;3.88;;
42364;SDS011;28498;54.400;18.566;2023-09-18T13:28:04;6.53;;;3.90;;
42364;SDS011;28498;54.400;18.566;2023-09-18T13:30:33;8.00;;;3.75;;
42364;SDS011;28498;54.400;18.566;2023-09-18T13:33:03;7.07;;;3.55;;
42364;SDS011;28498;54.400;18.566;2023-09-18T13:35:31;6.13;;;3.78;;
42364;SDS011;28498;54.400;18.566;2023-09-18T13:37:59;5.75;;;3.90;;
42364;SDS011;28498;54.400;18.566;2023-09-18T13:40:26;6.72;;;3.88;;
42364;SDS011;28498;54.400;18.566;2023-09-18T13:42:54;5.00;;;3.60;;
42364;SDS011;28498;54.400;18.566;2023-09-18T13:45:21;9.57;;;3.72;;
42364;SDS011;28498;54.400;18.566;2023-09-18T13:47:48;5.30;;;3.35;;
42364;SDS011;28498;54.400;18.566;2023-09-18T13:50:16;5.10;;;3.65;;
42364;SDS011;28498;54.400;18.566;2023-09-18T13:52:43;5.70;;;4.05;;
42364;SDS011;28498;54.400;18.566;2023-09-18T13:55:10;5.63;;;3.72;;
42364;SDS011;28498;54.400;18.566;2023-09-18T13:57:37;5.75;;;3.67;;
42364;SDS011;28498;54.400;18.566;2023-09-18T14:00:06;8.50;;;4.00;;
42364;SDS011;28498;54.400;18.566;2023-09-18T14:02:37;5.20;;;3.70;;
42364;SDS011;28498;54.400;18.566;2023-09-18T14:05:06;7.30;;;3.63;;
42364;SDS011;28498;54.400;18.566;2023-09-18T14:07:34;7.00;;;3.90;;
42364;SDS011;28498;54.400;18.566;2023-09-18T14:10:01;5.07;;;3.55;;
42364;SDS011;28498;54.400;18.566;2023-09-18T14:12:33;6.43;;;3.72;;
42364;SDS011;28498;54.400;18.566;2023-09-18T14:15:00;8.73;;;3.45;;
42364;SDS011;28498;54.400;18.566;2023-09-18T14:17:27;6.78;;;3.53;;
42364;SDS011;28498;54.400;18.566;2023-09-18T14:19:54;8.30;;;4.05;;
42364;SDS011;28498;54.400;18.566;2023-09-18T14:22:21;6.10;;;3.45;;
42364;SDS011;28498;54.400;18.566;2023-09-18T14:24:48;6.88;;;5.00;;
42364;SDS011;28498;54.400;18.566;2023-09-18T14:27:15;5.65;;;3.97;;
42364;SDS011;28498;54.400;18.566;2023-09-18T14:29:42;6.30;;;4.25;;
42364;SDS011;28498;54.400;18.566;2023-09-18T14:32:10;6.90;;;3.78;;
42364;SDS011;28498;54.400;18.566;2023-09-18T14:34:38;6.70;;;4.00;;
42364;SDS011;28498;54.400;18.566;2023-09-18T14:37:05;5.32;;;3.97;;
42364;SDS011;28498;54.400;18.566;2023-09-18T14:39:32;5.88;;;3.88;;
42364;SDS011;28498;54.400;18.566;2023-09-18T14:42:00;7.93;;;4.60;;
42364;SDS011;28498;54.400;18.566;2023-09-18T14:44:27;6.03;;;3.85;;
42364;SDS011;28498;54.400;18.566;2023-09-18T14:46:54;7.38;;;3.63;;
42364;SDS011;28498;54.400;18.566;2023-09-18T14:49:22;5.60;;;4.07;;
42364;SDS011;28498;54.400;18.566;2023-09-18T14:51:49;7.30;;;4.40;;
42364;SDS011;28498;54.400;18.566;2023-09-18T14:54:19;5.90;;;4.15;;